createdAt,value
2022-12-13T00:00:00.472Z,8.3
2022-12-13T00:05:00.464Z,10.8
2022-12-13T00:10:00.487Z,11.5
2022-12-13T00:15:00.445Z,6.8
2022-12-13T00:20:00.567Z,12.2
2022-12-13T00:25:00.489Z,11.9
2022-12-13T00:30:00.535Z,14.8
2022-12-13T00:35:00.448Z,10.8
2022-12-13T00:40:00.433Z,12.6
2022-12-13T00:45:00.450Z,8.6
2022-12-13T00:50:00.427Z,8.6
2022-12-13T00:55:00.423Z,12.2
2022-12-13T01:00:00.464Z,9.0
2022-12-13T01:05:00.435Z,15.5
2022-12-13T01:10:00.952Z,10.4
2022-12-13T01:15:00.543Z,10.1
2022-12-13T01:20:00.472Z,9.0
2022-12-13T01:25:00.464Z,10.1
2022-12-13T01:30:00.648Z,7.6
2022-12-13T01:35:00.475Z,11.2
2022-12-13T01:40:00.471Z,10.8
2022-12-13T01:45:00.473Z,7.6
2022-12-13T01:50:00.463Z,10.8
2022-12-13T01:55:10.365Z,10.8
2022-12-13T02:00:00.472Z,14.4
2022-12-13T02:05:00.563Z,15.5
2022-12-13T02:10:00.526Z,8.6
2022-12-13T02:15:01.527Z,8.6
2022-12-13T02:20:00.421Z,9.4
2022-12-13T02:25:00.447Z,9.0
2022-12-13T02:30:00.465Z,8.3
2022-12-13T02:35:00.458Z,11.9
2022-12-13T02:40:00.461Z,11.5
2022-12-13T02:45:00.516Z,4.7
2022-12-13T02:50:00.500Z,10.8
2022-12-13T02:55:00.453Z,8.6
2022-12-13T03:00:00.424Z,6.5
2022-12-13T03:05:00.451Z,10.1
2022-12-13T03:10:00.464Z,13.3
2022-12-13T03:15:00.422Z,4.7
2022-12-13T03:20:00.488Z,13.0
2022-12-13T03:25:00.451Z,13.3
2022-12-13T03:30:00.465Z,10.4
2022-12-13T03:35:21.486Z,5.8
2022-12-13T03:40:00.465Z,9.4
2022-12-13T03:45:00.466Z,2.9
2022-12-13T03:50:25.396Z,3.2
2022-12-13T03:55:00.422Z,2.5
2022-12-13T04:00:00.462Z,2.2
2022-12-13T04:05:01.123Z,4.3
2022-12-13T04:10:00.470Z,9.7
2022-12-13T04:15:00.419Z,7.2
2022-12-13T04:20:00.412Z,5.0
2022-12-13T04:25:00.450Z,7.6
2022-12-13T04:30:00.475Z,3.6
2022-12-13T04:35:10.365Z,6.5
2022-12-13T04:40:01.578Z,10.4
2022-12-13T04:45:00.416Z,7.9
2022-12-13T04:50:00.528Z,10.1
2022-12-13T04:55:00.531Z,6.8
2022-12-13T05:00:00.420Z,10.4
2022-12-13T05:05:00.459Z,8.6
2022-12-13T05:10:00.435Z,10.1
2022-12-13T05:15:00.476Z,14.8
2022-12-13T05:20:00.511Z,7.6
2022-12-13T05:25:00.429Z,14.8
2022-12-13T05:30:05.590Z,12.6
2022-12-13T05:35:00.473Z,14.4
2022-12-13T05:40:00.495Z,8.3
2022-12-13T05:45:00.487Z,14.4
2022-12-13T05:50:00.469Z,11.5
2022-12-13T05:55:01.619Z,9.7
2022-12-13T06:00:00.424Z,6.1
2022-12-13T06:05:00.447Z,8.6
2022-12-13T06:10:11.232Z,10.8
2022-12-13T06:15:01.909Z,10.1
2022-12-13T06:20:00.532Z,11.2
2022-12-13T06:25:00.470Z,9.4
2022-12-13T06:30:03.200Z,10.8
2022-12-13T06:35:27.788Z,5.0
2022-12-13T06:40:00.518Z,6.8
2022-12-13T06:45:00.461Z,7.6
2022-12-13T06:50:06.143Z,6.8
2022-12-13T06:55:00.455Z,7.6
2022-12-13T07:00:00.466Z,7.6
2022-12-13T07:05:00.490Z,6.1
2022-12-13T07:10:00.481Z,10.8
2022-12-13T07:15:00.469Z,9.0
2022-12-13T07:20:01.715Z,9.7
2022-12-13T07:25:00.470Z,7.6
2022-12-13T07:30:00.444Z,11.2
2022-12-13T07:35:00.447Z,5.8
2022-12-13T07:40:04.913Z,9.7
2022-12-13T07:45:00.463Z,5.8
2022-12-13T07:50:02.041Z,6.1
2022-12-13T07:55:01.475Z,8.3
2022-12-13T08:00:00.515Z,8.6
2022-12-13T08:05:26.266Z,7.6
2022-12-13T08:10:00.469Z,10.1
2022-12-13T08:15:00.500Z,3.6
2022-12-13T08:20:00.448Z,6.1
2022-12-13T08:25:03.121Z,10.1
2022-12-13T08:30:00.466Z,8.3
2022-12-13T08:35:00.449Z,7.2
2022-12-13T08:40:00.421Z,7.2
2022-12-13T08:45:00.457Z,9.7
2022-12-13T08:50:04.685Z,6.8
2022-12-13T08:55:00.453Z,6.8
2022-12-13T09:00:00.501Z,6.5
2022-12-13T09:05:00.458Z,9.4
2022-12-13T09:10:26.109Z,5.8
2022-12-13T09:15:02.179Z,3.2
2022-12-13T09:20:00.781Z,3.2
2022-12-13T09:25:03.359Z,7.9
2022-12-13T09:30:00.469Z,5.8
2022-12-13T09:35:00.451Z,5.0
2022-12-13T09:40:15.603Z,6.1
2022-12-13T09:45:04.264Z,6.5
2022-12-13T09:50:04.490Z,10.1
2022-12-13T09:55:00.447Z,7.9
2022-12-13T10:00:02.685Z,6.1
2022-12-13T10:05:02.562Z,3.6
2022-12-13T10:20:00.553Z,7.6
2022-12-13T10:25:00.570Z,9.0
2022-12-13T10:30:00.507Z,9.4
2022-12-13T10:35:00.486Z,9.7
2022-12-13T10:40:00.517Z,8.3
2022-12-13T10:45:00.533Z,5.8
2022-12-13T10:50:00.497Z,10.1
2022-12-13T10:55:01.734Z,6.1
2022-12-13T11:00:00.551Z,4.7
2022-12-13T11:05:00.494Z,3.6
2022-12-13T11:10:14.826Z,1.4
2022-12-13T11:15:00.483Z,5.8
2022-12-13T11:20:00.494Z,3.6
2022-12-13T11:25:00.506Z,3.6
2022-12-13T11:30:00.511Z,5.0
2022-12-13T11:35:03.011Z,3.2
2022-12-13T11:40:02.294Z,4.7
2022-12-13T11:45:00.498Z,5.0
2022-12-13T11:50:00.489Z,6.8
2022-12-13T11:55:00.798Z,5.0
2022-12-13T12:00:02.892Z,5.8
2022-12-13T12:05:01.440Z,6.5
2022-12-13T12:10:00.480Z,7.9
2022-12-13T12:15:15.999Z,4.7
2022-12-13T12:20:00.708Z,4.7
2022-12-13T12:25:00.530Z,7.6
2022-12-13T12:30:00.494Z,3.2
2022-12-13T12:35:00.494Z,5.8
2022-12-13T12:40:00.492Z,5.8
2022-12-13T12:45:00.497Z,4.3
2022-12-13T12:50:00.491Z,7.2
2022-12-13T12:55:00.483Z,2.9
2022-12-13T13:00:02.556Z,4.7
2022-12-13T13:05:00.487Z,4.7
2022-12-13T13:10:25.980Z,1.8
2022-12-13T13:15:00.496Z,5.8
2022-12-13T13:20:12.699Z,3.6
2022-12-13T13:25:00.493Z,3.2
2022-12-13T13:30:00.482Z,5.0
2022-12-13T13:35:01.113Z,2.2
2022-12-13T13:40:00.547Z,5.4
2022-12-13T13:45:00.520Z,6.1
2022-12-13T13:50:03.011Z,7.9
2022-12-13T13:55:00.539Z,4.3
2022-12-13T14:00:00.484Z,2.5
2022-12-13T14:05:00.499Z,1.4
2022-12-13T14:10:00.530Z,0.0
2022-12-13T14:15:01.814Z,4.3
2022-12-13T14:20:00.670Z,4.7
2022-12-13T14:25:00.478Z,5.0
2022-12-13T14:30:00.473Z,2.2
2022-12-13T14:35:24.641Z,0.0
2022-12-13T14:40:00.514Z,4.0
2022-12-13T14:45:00.494Z,0.0
2022-12-13T14:50:00.538Z,2.2
2022-12-13T14:55:00.490Z,0.0
2022-12-13T15:00:00.520Z,2.2
2022-12-13T15:05:00.481Z,0.0
2022-12-13T15:10:00.522Z,0.0
2022-12-13T15:15:00.499Z,2.2
2022-12-13T15:20:00.768Z,0.0
2022-12-13T15:25:00.487Z,0.0
2022-12-13T15:30:00.507Z,0.0
2022-12-13T15:35:00.486Z,0.0
2022-12-13T15:40:00.621Z,0.0
2022-12-13T15:45:00.488Z,0.0
2022-12-13T15:50:01.760Z,0.0
2022-12-13T16:00:00.762Z,0.0
2022-12-13T16:05:00.712Z,0.0
2022-12-13T16:10:00.722Z,0.0
2022-12-13T16:15:09.949Z,0.0
2022-12-13T16:20:09.931Z,0.0
2022-12-13T16:25:00.707Z,0.0
2022-12-13T16:30:01.062Z,0.0
2022-12-13T16:35:00.732Z,0.0
2022-12-13T16:40:00.928Z,0.0
2022-12-13T16:45:40.942Z,0.0
2022-12-13T16:50:00.728Z,0.0
2022-12-13T16:55:00.713Z,0.0
2022-12-13T17:00:00.714Z,0.0
2022-12-13T17:05:00.717Z,0.0
2022-12-13T17:10:00.723Z,0.0
2022-12-13T17:15:00.734Z,0.0
2022-12-13T17:20:01.195Z,0.0
2022-12-13T17:25:00.824Z,0.0
2022-12-13T17:30:00.695Z,0.0
2022-12-13T17:35:00.712Z,0.0
2022-12-13T17:40:00.704Z,0.0
2022-12-13T17:45:00.751Z,0.0
2022-12-13T17:50:00.724Z,0.0
2022-12-13T17:55:00.725Z,0.0
2022-12-13T18:00:00.746Z,0.0
2022-12-13T18:05:00.731Z,0.0
2022-12-13T18:10:00.748Z,0.0
2022-12-13T18:15:00.738Z,0.0
2022-12-13T18:20:00.918Z,0.0
2022-12-13T18:25:00.713Z,0.0
2022-12-13T18:30:01.553Z,0.0
2022-12-13T18:35:00.704Z,0.0
2022-12-13T18:40:00.748Z,0.0
2022-12-13T18:45:00.704Z,0.0
2022-12-13T18:50:00.725Z,0.0
2022-12-13T18:55:00.749Z,0.0
2022-12-13T19:00:00.700Z,0.0
2022-12-13T19:05:00.729Z,0.0
2022-12-13T19:10:00.688Z,3.2
2022-12-13T19:15:00.748Z,3.2
2022-12-13T19:20:00.799Z,0.0
2022-12-13T19:25:00.699Z,0.0
2022-12-13T19:30:00.718Z,0.0
2022-12-13T19:35:00.715Z,0.0
2022-12-13T19:40:00.708Z,0.0
2022-12-13T19:45:00.700Z,0.0
2022-12-13T19:50:00.731Z,2.2
2022-12-13T19:55:00.690Z,0.0
2022-12-13T20:00:00.737Z,0.0
2022-12-13T20:05:00.731Z,0.0
2022-12-13T20:10:00.701Z,0.0
2022-12-13T20:15:00.780Z,0.0
2022-12-13T20:20:01.000Z,0.0
2022-12-13T20:25:00.716Z,0.0
2022-12-13T20:30:00.709Z,2.5
2022-12-13T20:35:00.720Z,2.5
2022-12-13T20:40:00.693Z,4.7
2022-12-13T20:45:00.719Z,0.0
2022-12-13T20:50:00.745Z,1.4
2022-12-13T20:55:00.752Z,0.0
2022-12-13T21:00:00.729Z,0.0
2022-12-13T21:05:00.729Z,2.5
2022-12-13T21:10:00.700Z,0.0
2022-12-13T21:15:00.722Z,0.0
2022-12-13T21:20:00.900Z,0.0
2022-12-13T21:25:00.722Z,0.0
2022-12-13T21:30:00.722Z,0.0
2022-12-13T21:35:00.719Z,1.4
2022-12-13T21:40:00.705Z,0.0
2022-12-13T21:45:02.812Z,0.0
2022-12-13T21:50:00.708Z,0.0
2022-12-13T22:00:00.792Z,0.0
2022-12-13T22:05:00.702Z,0.0
2022-12-13T22:10:00.728Z,0.0
2022-12-13T22:15:00.717Z,0.0
2022-12-13T22:20:01.026Z,0.0
2022-12-13T22:25:00.729Z,0.0
2022-12-13T22:30:00.724Z,0.0
2022-12-13T22:35:00.708Z,0.0
2022-12-13T22:40:00.841Z,0.0
2022-12-13T22:45:00.676Z,0.0
2022-12-13T22:50:00.695Z,0.0
2022-12-13T22:55:00.707Z,0.0
2022-12-13T23:00:00.664Z,0.0
2022-12-13T23:05:00.705Z,0.0
2022-12-13T23:20:00.833Z,0.0
2022-12-13T23:25:00.482Z,0.0
2022-12-13T23:30:00.488Z,0.0
2022-12-13T23:35:00.480Z,0.0
2022-12-13T23:40:00.497Z,0.0
2022-12-13T23:45:00.790Z,0.0
2022-12-13T23:50:00.542Z,0.0
2022-12-13T23:55:00.480Z,0.0
